createdAt,value
2023-05-17T00:01:47.516Z,9.02
2023-05-17T00:04:14.082Z,9.00
2023-05-17T00:06:41.139Z,8.89
2023-05-17T00:09:07.762Z,8.92
2023-05-17T00:11:34.399Z,8.85
2023-05-17T00:14:00.934Z,8.88
2023-05-17T00:16:27.462Z,8.88
2023-05-17T00:18:54.279Z,8.75
2023-05-17T00:21:20.803Z,8.78
2023-05-17T00:23:47.354Z,8.76
2023-05-17T00:26:13.911Z,8.72
2023-05-17T00:28:40.403Z,8.72
2023-05-17T00:31:06.882Z,8.66
2023-05-17T00:33:33.420Z,8.66
2023-05-17T00:35:59.897Z,8.72
2023-05-17T00:38:26.482Z,8.71
2023-05-17T00:40:54.150Z,8.73
2023-05-17T00:43:20.840Z,8.83
2023-05-17T00:45:49.342Z,8.84
2023-05-17T00:48:16.234Z,8.84
2023-05-17T00:50:43.180Z,8.84
2023-05-17T00:53:16.022Z,8.89
2023-05-17T00:55:46.212Z,8.80
2023-05-17T00:58:13.629Z,8.80
2023-05-17T01:00:40.977Z,8.78
2023-05-17T01:03:08.112Z,8.74
2023-05-17T01:05:34.854Z,8.74
2023-05-17T01:08:01.365Z,8.78
2023-05-17T01:10:44.082Z,8.77
2023-05-17T01:13:17.434Z,8.75
2023-05-17T01:15:51.918Z,8.72
2023-05-17T01:18:29.992Z,8.67
2023-05-17T01:21:00.390Z,8.67
2023-05-17T01:23:44.882Z,8.65
2023-05-17T01:26:16.873Z,8.61
2023-05-17T01:28:46.262Z,8.48
2023-05-17T01:31:13.317Z,8.50
2023-05-17T01:33:40.424Z,8.51
2023-05-17T01:36:07.515Z,8.48
2023-05-17T01:38:33.958Z,8.50
2023-05-17T01:41:18.205Z,8.56
2023-05-17T01:44:00.080Z,8.64
2023-05-17T01:46:31.992Z,8.63
2023-05-17T01:49:29.520Z,8.63
2023-05-17T01:52:08.851Z,8.60
2023-05-17T01:54:42.084Z,8.59
2023-05-17T01:57:09.885Z,8.52
2023-05-17T01:59:38.538Z,8.57
2023-05-17T02:02:09.400Z,8.59
2023-05-17T02:04:36.676Z,8.60
2023-05-17T02:07:03.724Z,8.59
2023-05-17T02:09:30.972Z,8.56
2023-05-17T02:11:57.482Z,8.55
2023-05-17T02:14:23.999Z,8.47
2023-05-17T02:16:50.451Z,8.45
2023-05-17T02:19:17.022Z,8.38
2023-05-17T02:21:43.582Z,8.38
2023-05-17T02:24:10.066Z,8.41
2023-05-17T02:26:36.572Z,8.42
2023-05-17T02:29:03.098Z,8.43
2023-05-17T02:31:29.844Z,8.42
2023-05-17T02:33:56.490Z,8.38
2023-05-17T02:36:23.070Z,8.38
2023-05-17T02:38:49.529Z,8.39
2023-05-17T02:41:16.047Z,8.36
2023-05-17T02:43:42.600Z,8.33
2023-05-17T02:46:09.213Z,8.29
2023-05-17T02:48:35.850Z,8.26
2023-05-17T02:51:02.369Z,8.17
2023-05-17T02:53:28.847Z,8.08
2023-05-17T02:55:58.008Z,7.97
2023-05-17T02:58:25.766Z,7.96
2023-05-17T03:00:52.420Z,7.99
2023-05-17T03:03:19.052Z,7.95
2023-05-17T03:05:45.768Z,7.86
2023-05-17T03:08:12.229Z,7.85
2023-05-17T03:10:38.755Z,7.88
2023-05-17T03:13:05.268Z,7.80
2023-05-17T03:15:31.829Z,7.80
2023-05-17T03:17:58.556Z,7.71
2023-05-17T03:20:25.429Z,7.72
2023-05-17T03:22:51.932Z,7.67
2023-05-17T03:25:18.551Z,7.68
2023-05-17T03:27:45.031Z,7.62
2023-05-17T03:30:11.874Z,7.62
2023-05-17T03:32:40.475Z,7.65
2023-05-17T03:35:08.279Z,7.66
2023-05-17T03:37:34.860Z,7.63
2023-05-17T03:40:01.298Z,7.60
2023-05-17T03:42:27.830Z,7.65
2023-05-17T03:44:54.286Z,7.76
2023-05-17T03:47:23.885Z,7.84
2023-05-17T03:49:50.740Z,7.91
2023-05-17T03:52:17.301Z,7.95
2023-05-17T03:54:43.812Z,7.95
2023-05-17T03:57:10.431Z,7.99
2023-05-17T03:59:36.910Z,8.03
2023-05-17T04:02:03.486Z,8.04
2023-05-17T04:04:30.099Z,8.05
2023-05-17T04:06:56.688Z,8.09
2023-05-17T04:09:23.142Z,8.14
2023-05-17T04:11:49.822Z,8.16
2023-05-17T04:14:18.239Z,8.21
2023-05-17T04:16:44.781Z,8.24
2023-05-17T04:19:11.321Z,8.27
2023-05-17T04:21:38.019Z,8.20
2023-05-17T04:24:04.968Z,8.16
2023-05-17T04:26:32.220Z,8.16
2023-05-17T04:28:58.843Z,8.21
2023-05-17T04:31:25.484Z,8.28
2023-05-17T04:33:52.104Z,8.35
2023-05-17T04:36:18.750Z,8.40
2023-05-17T04:38:45.362Z,8.43
2023-05-17T04:41:11.907Z,8.42
2023-05-17T04:43:38.416Z,8.43
2023-05-17T04:46:05.950Z,8.44
2023-05-17T04:48:33.296Z,8.49
2023-05-17T04:51:06.756Z,8.51
2023-05-17T04:53:33.290Z,8.50
2023-05-17T04:55:59.928Z,8.51
2023-05-17T04:58:26.419Z,8.53
2023-05-17T05:00:52.931Z,8.59
2023-05-17T05:03:19.554Z,8.62
2023-05-17T05:05:46.148Z,8.67
2023-05-17T05:08:12.780Z,8.63
2023-05-17T05:10:39.297Z,8.67
2023-05-17T05:13:06.091Z,8.65
2023-05-17T05:15:33.060Z,8.64
2023-05-17T05:17:59.603Z,8.68
2023-05-17T05:20:27.966Z,8.65
2023-05-17T05:22:54.858Z,8.70
2023-05-17T05:25:21.378Z,8.70
2023-05-17T05:27:48.102Z,8.70
2023-05-17T05:30:21.898Z,8.69
2023-05-17T05:32:50.084Z,8.70
2023-05-17T05:35:17.378Z,8.77
2023-05-17T05:37:44.845Z,8.81
2023-05-17T05:40:11.893Z,8.82
2023-05-17T05:42:38.457Z,8.84
2023-05-17T05:45:09.569Z,8.89
2023-05-17T05:47:36.255Z,8.89
2023-05-17T05:50:02.938Z,8.95
2023-05-17T05:52:29.414Z,8.95
2023-05-17T05:54:55.853Z,9.01
2023-05-17T05:57:22.364Z,9.11
2023-05-17T05:59:48.879Z,9.17
2023-05-17T06:02:16.839Z,9.21
2023-05-17T06:04:45.728Z,9.18
2023-05-17T06:07:13.429Z,9.13
2023-05-17T06:09:40.407Z,9.12
2023-05-17T06:12:07.325Z,9.17
2023-05-17T06:14:34.068Z,9.15
2023-05-17T06:17:00.631Z,9.14
2023-05-17T06:19:27.257Z,9.18
2023-05-17T06:21:53.860Z,9.19
2023-05-17T06:24:20.528Z,9.22
2023-05-17T06:26:49.916Z,9.28
2023-05-17T06:29:16.442Z,9.35
2023-05-17T06:31:42.938Z,9.41
2023-05-17T06:34:09.492Z,9.41
2023-05-17T06:36:37.633Z,9.46
2023-05-17T06:39:05.438Z,9.47
2023-05-17T06:41:31.898Z,9.53
2023-05-17T06:43:58.371Z,9.58
2023-05-17T06:46:24.909Z,9.65
2023-05-17T06:48:51.674Z,9.70
2023-05-17T06:51:18.296Z,9.75
2023-05-17T06:53:44.881Z,9.78
2023-05-17T06:56:11.429Z,9.90
2023-05-17T06:58:37.930Z,9.96
2023-05-17T07:01:04.489Z,10.00
2023-05-17T07:03:31.142Z,10.06
2023-05-17T07:05:57.772Z,10.09
2023-05-17T07:08:24.239Z,10.15
2023-05-17T07:10:54.047Z,10.15
2023-05-17T07:13:20.715Z,10.21
2023-05-17T07:15:47.313Z,10.23
2023-05-17T07:18:14.159Z,10.27
2023-05-17T07:20:40.782Z,10.37
2023-05-17T07:23:07.706Z,10.35
2023-05-17T07:25:34.517Z,10.30
2023-05-17T07:28:01.066Z,10.22
2023-05-17T07:30:27.739Z,10.21
2023-05-17T07:32:54.399Z,10.20
2023-05-17T07:35:21.905Z,10.14
2023-05-17T07:37:48.824Z,10.07
2023-05-17T07:40:15.483Z,10.02
2023-05-17T07:42:41.995Z,9.96
2023-05-17T07:45:09.137Z,10.05
2023-05-17T07:47:35.838Z,10.27
2023-05-17T07:50:04.048Z,10.43
2023-05-17T07:52:30.602Z,10.56
2023-05-17T07:54:57.161Z,10.67
2023-05-17T07:57:23.698Z,10.73
2023-05-17T07:59:50.217Z,10.73
2023-05-17T08:02:16.764Z,10.74
2023-05-17T08:04:43.324Z,10.72
2023-05-17T08:07:09.954Z,10.73
2023-05-17T08:09:36.433Z,10.63
2023-05-17T08:12:02.983Z,10.67
2023-05-17T08:14:29.508Z,10.82
2023-05-17T08:16:56.159Z,11.00
2023-05-17T08:19:22.932Z,11.21
2023-05-17T08:21:49.625Z,11.32
2023-05-17T08:24:17.614Z,11.40
2023-05-17T08:26:45.171Z,11.41
2023-05-17T08:29:11.636Z,11.47
2023-05-17T08:31:38.107Z,11.52
2023-05-17T08:34:04.793Z,11.45
2023-05-17T08:36:32.721Z,11.30
2023-05-17T08:38:59.235Z,11.23
2023-05-17T08:41:25.807Z,11.18
2023-05-17T08:43:54.134Z,11.15
2023-05-17T08:46:23.974Z,11.15
2023-05-17T08:48:52.010Z,11.25
2023-05-17T08:51:20.770Z,11.43
2023-05-17T08:53:48.176Z,11.44
2023-05-17T08:56:16.634Z,11.29
2023-05-17T08:58:56.505Z,11.27
2023-05-17T09:01:26.512Z,11.38
2023-05-17T09:03:54.375Z,11.42
2023-05-17T09:06:22.809Z,11.52
2023-05-17T09:08:58.344Z,11.52
2023-05-17T09:11:30.757Z,11.59
2023-05-17T09:14:05.371Z,11.55
2023-05-17T09:16:33.718Z,11.64
2023-05-17T09:19:01.419Z,11.63
2023-05-17T09:21:31.013Z,11.53
2023-05-17T09:24:07.255Z,11.66
2023-05-17T09:26:46.210Z,11.79
2023-05-17T09:29:16.775Z,11.87
2023-05-17T09:31:44.302Z,11.85
2023-05-17T09:34:11.336Z,11.78
2023-05-17T09:36:42.127Z,11.73
2023-05-17T09:39:13.704Z,11.84
2023-05-17T09:41:45.303Z,11.95
2023-05-17T09:44:13.176Z,12.12
2023-05-17T09:46:46.193Z,12.27
2023-05-17T09:49:13.475Z,12.51
2023-05-17T09:51:42.719Z,12.50
2023-05-17T09:54:10.448Z,12.31
2023-05-17T09:56:37.217Z,12.31
2023-05-17T09:59:10.601Z,12.33
2023-05-17T10:01:40.538Z,12.29
2023-05-17T10:04:10.316Z,12.14
2023-05-17T10:09:14.713Z,11.93
2023-05-17T10:11:46.074Z,12.08
2023-05-17T10:14:18.661Z,12.27
2023-05-17T10:16:45.853Z,12.47
2023-05-17T10:19:14.109Z,12.28
2023-05-17T10:21:42.857Z,12.24
2023-05-17T10:24:11.320Z,12.19
2023-05-17T10:26:38.717Z,12.01
2023-05-17T10:29:06.018Z,12.03
2023-05-17T10:31:33.812Z,12.07
2023-05-17T10:34:05.619Z,12.31
2023-05-17T10:36:33.334Z,12.59
2023-05-17T10:39:00.529Z,12.53
2023-05-17T10:41:32.148Z,12.65
2023-05-17T10:44:00.933Z,12.67
2023-05-17T10:46:29.840Z,12.72
2023-05-17T10:48:59.125Z,12.65
2023-05-17T10:51:34.429Z,12.50
2023-05-17T10:54:11.903Z,12.46
2023-05-17T10:56:47.177Z,12.62
2023-05-17T10:59:22.053Z,12.79
2023-05-17T11:01:58.003Z,12.86
2023-05-17T11:04:33.568Z,12.82
2023-05-17T11:07:27.945Z,12.92
2023-05-17T11:10:03.638Z,12.91
2023-05-17T11:12:33.861Z,12.78
2023-05-17T11:15:01.373Z,12.78
2023-05-17T11:17:35.112Z,12.96
2023-05-17T11:20:02.500Z,13.02
2023-05-17T11:22:37.328Z,12.88
2023-05-17T11:25:08.531Z,12.91
2023-05-17T11:27:43.284Z,12.85
2023-05-17T11:30:31.665Z,12.94
2023-05-17T11:33:01.290Z,12.92
2023-05-17T11:35:38.958Z,12.91
2023-05-17T11:38:19.204Z,12.70
2023-05-17T11:40:47.458Z,12.74
2023-05-17T11:43:17.168Z,12.86
2023-05-17T11:45:48.213Z,12.93
2023-05-17T11:48:16.327Z,13.18
2023-05-17T11:50:44.792Z,13.21
2023-05-17T11:53:12.037Z,13.32
2023-05-17T11:55:43.952Z,13.45
2023-05-17T11:58:12.309Z,13.70
2023-05-17T12:00:40.643Z,14.07
2023-05-17T12:03:24.420Z,14.73
2023-05-17T12:06:01.166Z,14.38
2023-05-17T12:08:28.248Z,14.25
2023-05-17T12:10:56.589Z,14.24
2023-05-17T12:13:23.238Z,14.88
2023-05-17T12:16:21.898Z,15.95
2023-05-17T12:18:50.847Z,15.10
2023-05-17T12:21:19.133Z,14.30
2023-05-17T12:23:49.523Z,14.61
2023-05-17T12:26:19.920Z,14.68
2023-05-17T12:28:54.078Z,14.33
2023-05-17T12:31:24.914Z,15.38
2023-05-17T12:33:51.606Z,16.49
2023-05-17T12:36:18.758Z,16.65
2023-05-17T12:38:47.264Z,17.11
2023-05-17T12:41:15.525Z,17.64
2023-05-17T12:43:45.042Z,17.13
2023-05-17T12:46:20.334Z,16.70
2023-05-17T12:48:48.086Z,16.16
2023-05-17T12:51:16.354Z,14.94
2023-05-17T12:53:53.097Z,14.55
2023-05-17T12:56:24.457Z,14.29
2023-05-17T12:59:04.765Z,15.50
2023-05-17T13:01:44.265Z,16.63
2023-05-17T13:04:11.847Z,16.45
2023-05-17T13:06:54.529Z,17.02
2023-05-17T13:09:24.087Z,15.96
2023-05-17T13:11:57.894Z,16.02
2023-05-17T13:14:37.816Z,16.83
2023-05-17T13:17:05.739Z,16.54
2023-05-17T13:19:33.214Z,16.98
2023-05-17T13:21:59.997Z,17.40
2023-05-17T13:24:27.886Z,17.85
2023-05-17T13:26:54.646Z,17.74
2023-05-17T13:29:35.288Z,17.61
2023-05-17T13:32:06.651Z,17.35
2023-05-17T13:34:33.148Z,17.39
2023-05-17T13:36:59.677Z,17.33
2023-05-17T13:39:26.167Z,17.53
2023-05-17T13:41:52.893Z,17.75
2023-05-17T13:44:19.468Z,17.94
2023-05-17T13:46:45.956Z,17.96
2023-05-17T13:49:12.936Z,17.03
2023-05-17T13:51:39.775Z,16.63
2023-05-17T13:54:07.369Z,17.46
2023-05-17T13:56:34.609Z,17.67
2023-05-17T13:59:01.237Z,17.90
2023-05-17T14:01:27.887Z,18.03
2023-05-17T14:03:55.304Z,17.97
2023-05-17T14:06:21.964Z,17.21
2023-05-17T14:08:48.650Z,17.18
2023-05-17T14:11:15.230Z,17.53
2023-05-17T14:13:42.797Z,17.83
2023-05-17T14:16:09.434Z,17.85
2023-05-17T14:18:36.241Z,17.56
2023-05-17T14:21:03.570Z,17.65
2023-05-17T14:23:30.206Z,17.12
2023-05-17T14:25:57.761Z,17.13
2023-05-17T14:28:24.581Z,17.43
2023-05-17T14:30:51.848Z,16.99
2023-05-17T14:33:18.619Z,16.49
2023-05-17T14:35:45.243Z,16.87
2023-05-17T14:38:11.802Z,17.31
2023-05-17T14:40:38.324Z,17.37
2023-05-17T14:43:05.053Z,17.30
2023-05-17T14:45:31.835Z,17.31
2023-05-17T14:47:58.397Z,17.37
2023-05-17T14:50:25.009Z,17.08
2023-05-17T14:52:51.564Z,17.39
2023-05-17T14:55:18.780Z,17.44
2023-05-17T14:57:45.848Z,17.16
2023-05-17T15:00:13.548Z,17.24
2023-05-17T15:02:40.174Z,17.10
2023-05-17T15:05:07.293Z,16.89
2023-05-17T15:07:34.378Z,16.80
2023-05-17T15:10:01.389Z,16.59
2023-05-17T15:12:28.368Z,16.54
2023-05-17T15:14:54.882Z,16.70
2023-05-17T15:17:22.135Z,16.80
2023-05-17T15:19:48.991Z,16.85
2023-05-17T15:22:15.930Z,16.88
2023-05-17T15:24:42.800Z,16.74
2023-05-17T15:27:12.634Z,16.67
2023-05-17T15:29:40.816Z,16.80
2023-05-17T15:32:07.495Z,16.66
2023-05-17T15:34:34.264Z,16.63
2023-05-17T15:37:02.086Z,16.67
2023-05-17T15:39:28.648Z,16.50
2023-05-17T15:41:55.127Z,16.54
2023-05-17T15:44:23.912Z,16.80
2023-05-17T15:46:50.855Z,17.00
2023-05-17T15:49:17.420Z,16.74
2023-05-17T15:51:44.009Z,16.73
2023-05-17T15:54:10.689Z,16.84
2023-05-17T15:56:38.325Z,16.65
2023-05-17T15:59:05.855Z,16.65
2023-05-17T16:01:32.624Z,16.53
2023-05-17T16:03:59.170Z,16.44
2023-05-17T16:06:25.876Z,16.50
2023-05-17T16:08:53.383Z,16.66
2023-05-17T16:11:21.450Z,16.66
2023-05-17T16:13:47.950Z,16.55
2023-05-17T16:16:14.742Z,16.66
2023-05-17T16:18:41.413Z,16.73
2023-05-17T16:21:08.003Z,16.44
2023-05-17T16:23:34.614Z,16.58
2023-05-17T16:26:01.454Z,16.80
2023-05-17T16:28:28.059Z,16.91
2023-05-17T16:30:54.702Z,16.96
2023-05-17T16:33:21.470Z,17.05
2023-05-17T16:35:49.340Z,17.10
2023-05-17T16:38:16.559Z,16.96
2023-05-17T16:40:43.218Z,16.97
2023-05-17T16:43:10.018Z,16.91
2023-05-17T16:45:36.573Z,17.14
2023-05-17T16:48:03.226Z,17.08
2023-05-17T16:50:29.904Z,16.88
2023-05-17T16:52:56.825Z,16.61
2023-05-17T16:55:23.460Z,16.68
2023-05-17T16:57:50.013Z,16.98
2023-05-17T17:00:17.510Z,16.74
2023-05-17T17:02:44.046Z,16.62
2023-05-17T17:05:10.685Z,16.64
2023-05-17T17:07:37.228Z,16.48
2023-05-17T17:10:03.989Z,16.34
2023-05-17T17:12:30.988Z,16.36
2023-05-17T17:14:57.453Z,16.31
2023-05-17T17:17:23.996Z,16.40
2023-05-17T17:19:50.496Z,16.34
2023-05-17T17:22:16.994Z,16.27
2023-05-17T17:24:44.458Z,16.06
2023-05-17T17:27:11.606Z,16.05
2023-05-17T17:29:38.112Z,16.12
2023-05-17T17:32:05.164Z,16.19
2023-05-17T17:34:31.919Z,16.44
2023-05-17T17:36:58.414Z,16.65
2023-05-17T17:39:25.131Z,16.85
2023-05-17T17:41:51.736Z,16.93
2023-05-17T17:44:19.585Z,16.84
2023-05-17T17:46:46.137Z,16.75
2023-05-17T17:49:12.645Z,16.67
2023-05-17T17:51:39.093Z,16.62
2023-05-17T17:54:07.314Z,16.63
2023-05-17T17:56:34.028Z,16.68
2023-05-17T17:59:00.580Z,16.54
2023-05-17T18:01:27.692Z,16.44
2023-05-17T18:03:54.236Z,16.35
2023-05-17T18:06:20.901Z,16.28
2023-05-17T18:08:47.391Z,16.16
2023-05-17T18:11:13.920Z,15.94
2023-05-17T18:13:40.497Z,15.89
2023-05-17T18:16:07.055Z,15.82
2023-05-17T18:18:33.871Z,15.72
2023-05-17T18:21:00.428Z,15.66
2023-05-17T18:23:26.926Z,15.55
2023-05-17T18:25:53.511Z,15.57
2023-05-17T18:28:29.691Z,15.52
2023-05-17T18:31:04.585Z,15.37
2023-05-17T18:33:31.517Z,15.34
2023-05-17T18:35:58.081Z,15.34
2023-05-17T18:38:24.557Z,15.15
2023-05-17T18:40:51.204Z,15.15
2023-05-17T18:43:17.921Z,15.15
2023-05-17T18:45:44.449Z,15.19
2023-05-17T18:48:10.975Z,15.14
2023-05-17T18:50:37.507Z,15.05
2023-05-17T18:53:03.981Z,14.99
2023-05-17T18:55:30.530Z,14.91
2023-05-17T18:57:57.097Z,14.82
2023-05-17T19:00:23.597Z,14.76
2023-05-17T19:02:50.076Z,14.73
2023-05-17T19:05:16.696Z,14.72
2023-05-17T19:07:43.327Z,14.66
2023-05-17T19:10:10.468Z,14.58
2023-05-17T19:12:37.036Z,14.52
2023-05-17T19:15:04.162Z,14.47
2023-05-17T19:17:31.054Z,14.37
2023-05-17T19:19:57.585Z,14.34
2023-05-17T19:22:24.110Z,14.24
2023-05-17T19:24:50.773Z,14.16
2023-05-17T19:27:19.631Z,14.08
2023-05-17T19:29:47.117Z,13.98
2023-05-17T19:32:13.758Z,13.97
2023-05-17T19:34:40.429Z,13.91
2023-05-17T19:37:07.216Z,13.81
2023-05-17T19:39:36.251Z,13.72
2023-05-17T19:42:04.262Z,13.72
2023-05-17T19:44:31.220Z,13.64
2023-05-17T19:46:57.817Z,13.59
2023-05-17T19:49:24.531Z,13.61
2023-05-17T19:51:53.998Z,13.56
2023-05-17T19:54:21.824Z,13.61
2023-05-17T19:56:48.333Z,13.60
2023-05-17T19:59:14.891Z,13.54
2023-05-17T20:01:41.837Z,13.44
2023-05-17T20:04:10.352Z,13.41
2023-05-17T20:06:37.383Z,13.37
2023-05-17T20:09:04.519Z,13.33
2023-05-17T20:11:31.479Z,13.25
2023-05-17T20:13:57.995Z,13.12
2023-05-17T20:16:27.829Z,12.99
2023-05-17T20:18:55.011Z,12.91
2023-05-17T20:21:22.971Z,12.83
2023-05-17T20:23:51.324Z,12.86
2023-05-17T20:26:19.032Z,12.69
2023-05-17T20:28:46.144Z,12.67
2023-05-17T20:31:12.762Z,12.63
2023-05-17T20:33:39.356Z,12.65
2023-05-17T20:36:06.109Z,12.67
2023-05-17T20:38:32.630Z,12.49
2023-05-17T20:41:00.679Z,12.46
2023-05-17T20:43:28.934Z,12.41
2023-05-17T20:45:55.832Z,12.34
2023-05-17T20:48:22.414Z,12.25
2023-05-17T20:50:49.327Z,12.22
2023-05-17T20:53:16.111Z,12.24
2023-05-17T20:55:44.238Z,12.29
2023-05-17T20:58:11.429Z,12.27
2023-05-17T21:00:38.295Z,12.25
2023-05-17T21:03:05.004Z,12.28
2023-05-17T21:05:36.033Z,12.19
2023-05-17T21:08:03.098Z,12.15
2023-05-17T21:10:30.079Z,12.15
2023-05-17T21:12:57.055Z,12.12
2023-05-17T21:15:24.192Z,12.12
2023-05-17T21:17:51.249Z,12.14
2023-05-17T21:20:17.820Z,12.15
2023-05-17T21:22:45.445Z,12.07
2023-05-17T21:25:11.962Z,11.99
2023-05-17T21:27:38.604Z,11.95
2023-05-17T21:30:05.924Z,11.97
2023-05-17T21:32:32.495Z,11.92
2023-05-17T21:34:59.710Z,11.89
2023-05-17T21:37:26.442Z,11.81
2023-05-17T21:39:52.976Z,11.75
2023-05-17T21:42:19.558Z,11.70
2023-05-17T21:44:46.023Z,11.65
2023-05-17T21:47:12.458Z,11.65
2023-05-17T21:49:38.917Z,11.65
2023-05-17T21:52:05.890Z,11.60
2023-05-17T21:54:32.409Z,11.54
2023-05-17T21:56:58.945Z,11.55
2023-05-17T21:59:25.427Z,11.47
2023-05-17T22:01:55.016Z,11.45
2023-05-17T22:04:21.690Z,11.44
2023-05-17T22:06:48.225Z,11.30
2023-05-17T22:09:14.821Z,11.21
2023-05-17T22:11:41.323Z,11.26
2023-05-17T22:14:08.041Z,11.21
2023-05-17T22:16:36.152Z,11.11
2023-05-17T22:19:03.863Z,10.98
2023-05-17T22:21:31.587Z,10.99
2023-05-17T22:23:59.158Z,11.00
2023-05-17T22:26:25.765Z,10.98
2023-05-17T22:28:52.369Z,10.98
2023-05-17T22:31:19.692Z,10.99
2023-05-17T22:33:46.508Z,10.86
2023-05-17T22:36:14.097Z,10.84
2023-05-17T22:38:42.648Z,10.87
2023-05-17T22:41:10.079Z,10.88
2023-05-17T22:43:37.115Z,10.83
2023-05-17T22:46:03.992Z,10.76
2023-05-17T22:48:31.964Z,10.63
2023-05-17T22:51:01.569Z,10.44
2023-05-17T22:53:31.579Z,10.37
2023-05-17T22:55:58.116Z,10.36
2023-05-17T22:58:24.646Z,10.30
2023-05-17T23:00:52.085Z,10.24
2023-05-17T23:03:19.527Z,10.22
2023-05-17T23:05:46.078Z,10.17
2023-05-17T23:08:15.325Z,10.05
2023-05-17T23:10:45.315Z,9.99
2023-05-17T23:13:12.506Z,9.95
2023-05-17T23:15:40.724Z,9.98
2023-05-17T23:18:07.422Z,10.06
2023-05-17T23:20:35.009Z,10.11
2023-05-17T23:23:01.819Z,10.14
2023-05-17T23:25:29.289Z,10.22
2023-05-17T23:27:58.095Z,10.22
2023-05-17T23:30:25.105Z,10.22
2023-05-17T23:35:18.814Z,10.24
2023-05-17T23:37:45.379Z,10.16
2023-05-17T23:40:12.546Z,10.15
2023-05-17T23:42:40.425Z,10.13
2023-05-17T23:45:09.849Z,10.13
2023-05-17T23:47:40.447Z,10.13
2023-05-17T23:50:09.269Z,9.88
2023-05-17T23:52:38.847Z,9.87
2023-05-17T23:55:09.072Z,9.90
2023-05-17T23:57:35.608Z,9.90
